Time;durP1;ratioP1;P1;durP2;ratioP2;P2;SDS_P1;SDS_P2;PMS_P1;PMS_P2;Temp;Humidity;BMP_temperature;BMP_pressure;BME280_temperature;BME280_humidity;BME280_pressure;Samples;Min_cycle;Max_cycle;Signal;HPM_P1;HPM_P2
2024/03/24 00:02:15;;;;;;;0.20;0.20;;;;;;;12.03;49.18;100284.47;4920822;29;20036;-91
2024/03/24 00:04:41;;;;;;;0.20;0.20;;;;;;;12.01;50.95;100258.63;4936521;29;20039;-90
2024/03/24 00:07:06;;;;;;;0.20;0.20;;;;;;;12.19;50.62;100274.84;4936502;29;20028;-91
2024/03/24 00:09:32;;;;;;;0.20;0.20;;;;;;;12.24;49.71;100272.78;4920333;29;20028;-91
2024/03/24 00:11:57;;;;;;;0.20;0.20;;;;;;;12.21;48.87;100259.19;4936417;29;20482;-91
2024/03/24 00:14:23;;;;;;;0.20;0.20;;;;;;;12.35;48.57;100261.75;4936408;29;20486;-92
2024/03/24 00:16:48;;;;;;;0.20;0.20;;;;;;;12.43;48.30;100267.28;4936409;29;20468;-91
2024/03/24 00:19:14;;;;;;;0.20;0.20;;;;;;;12.44;47.99;100243.00;4920559;29;20032;-90
2024/03/24 00:21:40;;;;;;;0.20;0.20;;;;;;;12.59;47.97;100251.59;4936231;29;20036;-92
2024/03/24 00:24:05;;;;;;;0.20;0.20;;;;;;;12.63;47.93;100250.47;4920154;29;20105;-91
2024/03/24 00:26:31;;;;;;;0.20;0.20;;;;;;;12.66;47.66;100247.66;4920157;29;20035;-90
2024/03/24 00:28:56;;;;;;;0.20;0.20;;;;;;;12.73;47.90;100246.34;4936890;29;20027;-91
2024/03/24 00:31:22;;;;;;;0.13;0.13;;;;;;;12.73;47.64;100235.97;4935878;29;20032;-91
2024/03/24 00:33:47;;;;;;;0.20;0.20;;;;;;;12.86;47.23;100246.41;4935962;29;20055;-91
2024/03/24 00:36:13;;;;;;;0.10;0.10;;;;;;;12.91;47.03;100229.59;4920003;29;20478;-90
2024/03/24 00:38:40;;;;;;;0.20;0.20;;;;;;;13.11;47.09;100210.13;4935609;29;20045;-90
2024/03/24 00:41:06;;;;;;;0.20;0.20;;;;;;;13.51;46.41;100245.66;4935553;29;20115;-91
2024/03/24 00:43:32;;;;;;;0.10;0.10;;;;;;;13.75;46.05;100241.38;4920354;29;20031;-91
2024/03/24 00:45:58;;;;;;;0.20;0.20;;;;;;;13.91;45.63;100239.41;4935856;29;20110;-92
2024/03/24 00:48:23;;;;;;;0.20;0.20;;;;;;;13.99;45.29;100241.47;4935962;29;20542;-90
2024/03/24 00:50:49;;;;;;;0.10;0.10;;;;;;;14.06;45.23;100224.53;4919989;29;20553;-91
2024/03/24 00:53:14;;;;;;;0.20;0.20;;;;;;;14.05;45.24;100228.88;4934168;29;20039;-93
2024/03/24 00:55:40;;;;;;;0.20;0.20;;;;;;;14.15;45.54;100242.06;4919974;29;20019;-92
2024/03/24 00:58:07;;;;;;;0.10;0.10;;;;;;;14.27;44.95;100245.59;4935701;29;20043;-91
2024/03/24 01:00:33;;;;;;;0.20;0.20;;;;;;;14.26;44.96;100238.72;4920042;29;20024;-90
2024/03/24 01:02:58;;;;;;;0.20;0.20;;;;;;;14.31;44.40;100249.63;4919660;29;20023;-90
2024/03/24 01:05:24;;;;;;;0.20;0.20;;;;;;;14.39;44.86;100249.09;4919436;29;20031;-90
2024/03/24 01:07:50;;;;;;;0.20;0.20;;;;;;;14.25;46.38;100252.66;4919341;29;20024;-90
2024/03/24 01:10:15;;;;;;;0.20;0.20;;;;;;;14.19;46.01;100258.31;4919734;29;20118;-92
2024/03/24 01:12:43;;;;;;;0.20;0.20;;;;;;;14.15;45.93;100249.88;4919865;29;20119;-92
2024/03/24 01:15:09;;;;;;;0.10;0.10;;;;;;;14.14;45.64;100247.38;4919746;29;20032;-92
2024/03/24 01:17:35;;;;;;;0.20;0.20;;;;;;;14.05;45.66;100241.03;4919633;29;20035;-92
2024/03/24 01:20:01;;;;;;;0.20;0.20;;;;;;;14.09;46.52;100247.72;4936453;29;20107;-91
2024/03/24 01:22:26;;;;;;;0.20;0.20;;;;;;;14.06;47.22;100246.16;4918877;29;20114;-92
2024/03/24 01:24:52;;;;;;;0.20;0.20;;;;;;;13.95;47.25;100240.84;4935140;29;20066;-91
2024/03/24 01:27:17;;;;;;;0.20;0.20;;;;;;;13.97;46.35;100249.41;4935060;29;20079;-91
2024/03/24 01:29:43;;;;;;;0.20;0.20;;;;;;;14.00;46.59;100240.53;4935176;29;20032;-91
2024/03/24 01:32:08;;;;;;;0.20;0.20;;;;;;;14.07;49.16;100241.78;4919264;29;20039;-91
2024/03/24 01:34:34;;;;;;;0.20;0.20;;;;;;;13.94;48.74;100233.16;4919379;29;20032;-91
2024/03/24 01:36:59;;;;;;;0.20;0.20;;;;;;;13.84;49.06;100243.34;4934341;29;20042;-91
2024/03/24 01:39:25;;;;;;;0.20;0.20;;;;;;;13.59;49.13;100239.00;4919283;29;20028;-90
2024/03/24 01:41:50;;;;;;;0.20;0.20;;;;;;;13.55;48.73;100239.28;4934978;29;20036;-90
2024/03/24 01:44:16;;;;;;;0.20;0.20;;;;;;;13.41;49.17;100220.28;4934809;29;20115;-91
2024/03/24 01:46:41;;;;;;;0.20;0.20;;;;;;;13.28;49.43;100216.84;4934948;29;20023;-91
2024/03/24 01:49:07;;;;;;;0.20;0.20;;;;;;;13.15;50.06;100206.38;4934761;29;20024;-90
2024/03/24 01:51:34;;;;;;;0.20;0.20;;;;;;;13.18;50.52;100223.56;4935489;29;20030;-92
2024/03/24 01:53:59;;;;;;;0.20;0.20;;;;;;;13.02;51.47;100225.47;4919004;29;20118;-91
2024/03/24 01:56:25;;;;;;;0.20;0.20;;;;;;;12.88;51.14;100227.22;4934918;29;20170;-91
2024/03/24 01:58:50;;;;;;;0.20;0.20;;;;;;;12.75;51.01;100208.16;4918888;29;20028;-90
2024/03/24 02:01:16;;;;;;;0.20;0.20;;;;;;;12.69;51.10;100205.97;4918620;29;20034;-90
2024/03/24 02:03:42;;;;;;;0.20;0.20;;;;;;;12.56;51.59;100190.34;4918687;29;20035;-91
2024/03/24 02:06:07;;;;;;;0.20;0.20;;;;;;;12.59;51.77;100199.72;4935025;29;20035;-91
2024/03/24 02:08:33;;;;;;;0.20;0.20;;;;;;;12.55;52.61;100198.22;4934169;29;20028;-90
2024/03/24 02:10:59;;;;;;;0.20;0.20;;;;;;;12.49;52.20;100199.47;4918642;29;20087;-91
2024/03/24 02:13:25;;;;;;;0.13;0.13;;;;;;;12.45;51.95;100185.00;4918663;29;20410;-91
2024/03/24 02:15:52;;;;;;;0.10;0.10;;;;;;;12.38;53.32;100185.47;4934319;29;20107;-92
2024/03/24 02:18:17;;;;;;;0.20;0.20;;;;;;;12.41;53.00;100187.91;4918614;29;20122;-91
2024/03/24 02:20:43;;;;;;;0.10;0.10;;;;;;;12.07;53.82;100151.09;4933955;29;20063;-91
2024/03/24 02:23:08;;;;;;;0.20;0.20;;;;;;;12.22;53.16;100194.25;4933862;29;20035;-92
2024/03/24 02:25:34;;;;;;;0.20;0.20;;;;;;;12.13;53.59;100199.16;4918487;29;20032;-91
2024/03/24 02:28:00;;;;;;;0.20;0.20;;;;;;;12.18;53.33;100197.94;4935240;29;20660;-91
2024/03/24 02:30:25;;;;;;;0.20;0.20;;;;;;;12.13;52.99;100183.63;4934238;29;20095;-92
2024/03/24 02:32:52;;;;;;;0.10;0.10;;;;;;;12.25;53.32;100191.44;4933642;29;20046;-91
2024/03/24 02:35:17;;;;;;;0.20;0.20;;;;;;;12.25;52.55;100180.25;4933629;29;20036;-90
2024/03/24 02:37:43;;;;;;;0.15;0.15;;;;;;;12.36;51.98;100188.19;4933867;29;20027;-91
2024/03/24 02:40:09;;;;;;;0.10;0.10;;;;;;;12.63;51.10;100190.78;4918354;29;20035;-90
2024/03/24 02:42:35;;;;;;;0.20;0.20;;;;;;;12.92;50.01;100187.13;4917829;29;20099;-91
2024/03/24 02:45:00;;;;;;;0.20;0.20;;;;;;;12.91;49.18;100190.66;4917884;29;20028;-91
2024/03/24 02:47:26;;;;;;;0.20;0.20;;;;;;;13.17;49.23;100198.47;4933450;29;20035;-93
2024/03/24 02:49:51;;;;;;;0.20;0.20;;;;;;;13.25;48.33;100195.41;4917517;29;20023;-92
2024/03/24 02:52:17;;;;;;;0.20;0.20;;;;;;;13.48;47.69;100195.56;4918062;29;20038;-90
2024/03/24 02:54:42;;;;;;;0.20;0.20;;;;;;;13.73;47.08;100199.88;4918001;29;20027;-90
2024/03/24 02:57:08;;;;;;;0.20;0.20;;;;;;;13.81;46.51;100198.53;4933616;29;20040;-91
2024/03/24 02:59:33;;;;;;;0.10;0.10;;;;;;;13.65;46.50;100196.16;4933511;29;20055;-90
2024/03/24 03:01:59;;;;;;;0.20;0.20;;;;;;;13.68;46.37;100195.97;4917444;29;20091;-92
2024/03/24 03:04:24;;;;;;;0.20;0.20;;;;;;;13.62;46.25;100196.38;4933281;29;20039;-91
2024/03/24 03:06:50;;;;;;;0.20;0.20;;;;;;;13.62;47.07;100210.19;4917831;29;20031;-91
2024/03/24 03:09:19;;;;;;;0.20;0.20;;;;;;;13.53;46.92;100208.22;4917469;29;20020;-92
2024/03/24 03:11:44;;;;;;;0.20;0.20;;;;;;;13.39;46.68;100209.16;4918270;29;20027;-91
2024/03/24 03:14:10;;;;;;;0.20;0.20;;;;;;;13.37;47.23;100208.44;4917563;29;20387;-91
2024/03/24 03:16:35;;;;;;;0.20;0.20;;;;;;;13.52;47.15;100216.13;4916857;29;20470;-91
2024/03/24 03:19:01;;;;;;;0.20;0.20;;;;;;;13.46;48.02;100214.75;4917492;29;20039;-91
2024/03/24 03:21:27;;;;;;;0.20;0.20;;;;;;;13.34;49.44;100220.78;4917807;29;20086;-91
2024/03/24 03:23:53;;;;;;;0.20;0.20;;;;;;;13.27;50.21;100228.13;4917538;29;20554;-91
2024/03/24 03:26:20;;;;;;;0.20;0.20;;;;;;;13.11;50.43;100230.06;4917439;29;20039;-90
2024/03/24 03:28:46;;;;;;;0.10;0.10;;;;;;;12.94;51.35;100225.97;4917670;29;20486;-92
2024/03/24 03:31:12;;;;;;;0.10;0.10;;;;;;;12.76;51.99;100233.19;4932574;29;20031;-91
2024/03/24 03:33:37;;;;;;;0.20;0.20;;;;;;;12.67;52.27;100233.75;4917088;29;20193;-92
2024/03/24 03:36:03;;;;;;;0.20;0.20;;;;;;;12.54;52.43;100232.88;4917239;29;20032;-92
2024/03/24 03:38:29;;;;;;;0.20;0.20;;;;;;;12.30;52.70;100212.75;4917455;29;20083;-92
2024/03/24 03:40:55;;;;;;;0.20;0.20;;;;;;;12.34;52.90;100237.56;4917250;29;20032;-91
2024/03/24 03:43:21;;;;;;;0.20;0.20;;;;;;;12.21;53.30;100247.03;4933157;29;20410;-92
2024/03/24 03:45:47;;;;;;;0.20;0.20;;;;;;;12.18;53.22;100242.03;4932775;29;20027;-91
2024/03/24 03:48:13;;;;;;;0.20;0.20;;;;;;;12.14;54.24;100258.72;4917514;29;20111;-92
2024/03/24 03:50:41;;;;;;;0.20;0.20;;;;;;;12.11;53.81;100264.09;4933005;29;20028;-92
2024/03/24 03:53:36;;;;;;;0.20;0.20;;;;;;;11.94;52.96;100256.50;4917195;29;20035;-92
2024/03/24 03:55:52;;;;;;;0.20;0.20;;;;;;;12.03;52.98;100254.19;4932742;29;20127;-91
2024/03/24 03:58:19;;;;;;;0.20;0.20;;;;;;;12.12;52.79;100263.16;4933152;29;20130;-92
2024/03/24 04:00:45;;;;;;;0.20;0.20;;;;;;;12.08;53.00;100266.84;4916841;29;20038;-90
2024/03/24 04:03:11;;;;;;;0.20;0.20;;;;;;;12.01;52.18;100273.34;4932911;29;20031;-92
2024/03/24 04:05:40;;;;;;;0.20;0.20;;;;;;;12.08;52.49;100277.22;4917158;29;20106;-91
2024/03/24 04:08:09;;;;;;;0.20;0.20;;;;;;;12.08;52.07;100279.81;4916956;29;20031;-92
2024/03/24 04:10:35;;;;;;;0.20;0.20;;;;;;;12.24;52.20;100271.94;4917182;29;20039;-91
2024/03/24 04:13:04;;;;;;;0.10;0.10;;;;;;;12.37;51.43;100269.41;4916911;29;20035;-89
2024/03/24 04:15:30;;;;;;;0.20;0.20;;;;;;;12.47;50.89;100260.13;4916584;29;20172;-92
2024/03/24 04:17:55;;;;;;;0.20;0.20;;;;;;;12.60;50.56;100263.66;4916978;29;20141;-91
2024/03/24 04:20:21;;;;;;;0.20;0.20;;;;;;;12.77;50.10;100259.97;4932754;29;20036;-93
2024/03/24 04:22:46;;;;;;;0.20;0.20;;;;;;;12.79;49.82;100258.97;4932671;29;20036;-91
2024/03/24 04:25:12;;;;;;;0.20;0.20;;;;;;;12.98;49.27;100268.13;4932489;29;20125;-91
2024/03/24 04:27:38;;;;;;;0.20;0.20;;;;;;;13.07;49.07;100272.75;4933882;29;20028;-91
2024/03/24 04:30:04;;;;;;;0.20;0.20;;;;;;;13.05;48.85;100275.44;4920218;29;20035;-91
2024/03/24 04:32:29;;;;;;;0.20;0.20;;;;;;;13.05;48.77;100280.63;4920576;29;20043;-91
2024/03/24 04:34:55;;;;;;;0.20;0.20;;;;;;;13.22;48.59;100297.75;4936300;29;20050;-91
2024/03/24 04:37:20;;;;;;;0.20;0.20;;;;;;;13.15;48.61;100296.47;4936182;29;20023;-92
2024/03/24 04:39:46;;;;;;;0.20;0.20;;;;;;;13.05;48.58;100279.81;4920335;29;20086;-92
2024/03/24 04:42:12;;;;;;;0.20;0.20;;;;;;;13.24;48.29;100301.09;4936107;29;20561;-92
2024/03/24 04:44:37;;;;;;;0.20;0.20;;;;;;;13.36;48.49;100299.44;4935838;29;20031;-90
2024/03/24 04:47:03;;;;;;;0.10;0.10;;;;;;;13.30;47.78;100300.69;4920272;29;20032;-91
2024/03/24 04:49:28;;;;;;;0.20;0.20;;;;;;;13.34;47.90;100306.53;4937037;29;20062;-91
2024/03/24 04:51:54;;;;;;;0.20;0.20;;;;;;;13.41;47.94;100300.81;4919664;29;20063;-91
2024/03/24 04:54:20;;;;;;;0.20;0.20;;;;;;;13.38;47.99;100302.81;4935791;29;20114;-91
2024/03/24 04:56:46;;;;;;;0.20;0.20;;;;;;;13.30;48.10;100298.09;4936706;29;20046;-91
2024/03/24 04:59:11;;;;;;;0.20;0.20;;;;;;;13.22;48.61;100287.38;4935294;29;20034;-91
2024/03/24 05:01:37;;;;;;;0.20;0.20;;;;;;;13.31;48.30;100291.13;4919518;29;20510;-91
2024/03/24 05:04:04;;;;;;;0.20;0.20;;;;;;;13.35;48.89;100292.59;4919765;29;20510;-91
2024/03/24 05:06:30;;;;;;;0.20;0.20;;;;;;;13.28;47.85;100267.97;4919829;29;20178;-91
2024/03/24 05:08:56;;;;;;;0.20;0.20;;;;;;;13.45;47.90;100284.09;4936565;29;20546;-90
2024/03/24 05:11:22;;;;;;;0.20;0.20;;;;;;;13.38;47.96;100256.88;4919249;29;20042;-90
2024/03/24 05:13:47;;;;;;;0.10;0.10;;;;;;;13.61;47.65;100273.50;4935040;29;20103;-92
2024/03/24 05:16:13;;;;;;;0.20;0.20;;;;;;;13.64;47.22;100268.09;4935057;29;20084;-89
2024/03/24 05:18:39;;;;;;;0.20;0.20;;;;;;;13.75;46.93;100272.56;4935172;29;20056;-90
2024/03/24 05:21:04;;;;;;;0.20;0.20;;;;;;;13.95;46.75;100266.84;4934829;29;20083;-90
2024/03/24 05:23:30;;;;;;;0.20;0.20;;;;;;;14.04;46.78;100265.38;4919260;29;20035;-90
2024/03/24 05:25:56;;;;;;;0.10;0.10;;;;;;;14.02;46.53;100260.28;4919068;29;20490;-90
2024/03/24 05:28:22;;;;;;;0.20;0.20;;;;;;;13.96;46.16;100237.34;4934559;29;20039;-91
2024/03/24 05:30:48;;;;;;;0.20;0.20;;;;;;;14.18;45.69;100267.06;4918913;29;20398;-90
2024/03/24 05:33:13;;;;;;;0.20;0.20;;;;;;;14.06;45.99;100242.72;4934272;29;20048;-91
2024/03/24 05:35:39;;;;;;;0.20;0.20;;;;;;;14.28;45.66;100278.47;4918864;29;20032;-90
2024/03/24 05:38:05;;;;;;;0.20;0.20;;;;;;;14.32;45.65;100272.13;4918998;29;20054;-90
2024/03/24 05:40:30;;;;;;;0.10;0.10;;;;;;;14.38;45.55;100269.09;4934407;29;20098;-90
2024/03/24 05:42:56;;;;;;;0.20;0.20;;;;;;;14.48;45.62;100264.09;4934158;29;20111;-91
2024/03/24 05:45:21;;;;;;;0.20;0.20;;;;;;;14.60;45.21;100273.63;4934579;29;20032;-91
2024/03/24 05:47:48;;;;;;;0.20;0.20;;;;;;;14.54;45.40;100274.88;4918742;29;20482;-90
2024/03/24 05:50:14;;;;;;;0.20;0.20;;;;;;;14.66;45.64;100262.78;4918764;29;20034;-91
2024/03/24 05:52:41;;;;;;;0.20;0.20;;;;;;;14.72;45.98;100262.34;4934644;29;20107;-90
2024/03/24 05:55:07;;;;;;;0.20;0.20;;;;;;;14.82;45.31;100267.72;4919150;29;20032;-91
2024/03/24 05:57:33;;;;;;;0.20;0.20;;;;;;;14.84;45.31;100271.03;4934234;29;20067;-90
2024/03/24 05:59:59;;;;;;;0.20;0.20;;;;;;;14.90;44.96;100254.97;4919068;29;20655;-91
2024/03/24 06:02:28;;;;;;;0.20;0.20;;;;;;;14.92;44.85;100266.94;4934220;29;20032;-91
2024/03/24 06:04:53;;;;;;;0.20;0.20;;;;;;;15.06;44.20;100270.34;4933922;29;20506;-91
2024/03/24 06:07:19;;;;;;;0.20;0.20;;;;;;;15.17;44.46;100278.19;4934015;29;20099;-91
2024/03/24 06:09:45;;;;;;;0.20;0.20;;;;;;;15.24;44.45;100265.50;4934278;29;20036;-91
2024/03/24 06:12:11;;;;;;;0.20;0.20;;;;;;;15.24;44.05;100252.50;4918018;29;20038;-91
2024/03/24 06:14:37;;;;;;;0.20;0.20;;;;;;;15.57;44.05;100289.09;4934308;29;20059;-91
2024/03/24 06:17:04;;;;;;;0.20;0.20;;;;;;;15.60;44.23;100288.03;4918096;29;20119;-91
2024/03/24 06:19:29;;;;;;;0.20;0.20;;;;;;;15.79;44.16;100290.94;4934047;29;20063;-91
2024/03/24 06:21:55;;;;;;;0.20;0.20;;;;;;;15.92;43.16;100296.03;4918149;29;20134;-91
2024/03/24 06:24:20;;;;;;;0.20;0.20;;;;;;;16.03;43.01;100296.06;4918249;29;20027;-92
2024/03/24 06:26:46;;;;;;;0.20;0.20;;;;;;;16.13;43.43;100289.19;4933733;29;20032;-91
2024/03/24 06:29:11;;;;;;;0.20;0.20;;;;;;;16.29;42.90;100292.25;4933883;29;20036;-92
2024/03/24 06:31:37;;;;;;;0.20;0.20;;;;;;;16.38;42.70;100295.94;4918094;29;20035;-90
2024/03/24 06:34:04;;;;;;;0.20;0.20;;;;;;;16.54;42.79;100300.78;4918031;29;20070;-90
2024/03/24 06:36:30;;;;;;;0.10;0.10;;;;;;;16.65;42.88;100303.38;4918094;29;20059;-92
2024/03/24 06:38:55;;;;;;;0.20;0.20;;;;;;;16.75;42.71;100306.13;4918082;29;20023;-92
2024/03/24 06:41:21;;;;;;;0.20;0.20;;;;;;;16.74;42.94;100310.53;4917307;29;20139;-92
2024/03/24 06:43:47;;;;;;;0.20;0.20;;;;;;;16.80;43.06;100315.25;4917936;29;20031;-91
2024/03/24 06:46:12;;;;;;;0.20;0.20;;;;;;;16.85;42.54;100307.88;4917839;29;20031;-92
2024/03/24 06:48:38;;;;;;;0.20;0.20;;;;;;;16.94;41.91;100322.00;4933606;29;20418;-91
2024/03/24 06:51:04;;;;;;;0.20;0.20;;;;;;;16.94;41.94;100311.53;4916963;29;20090;-91
2024/03/24 06:53:30;;;;;;;0.20;0.20;;;;;;;16.97;41.95;100300.00;4917819;29;20498;-91
2024/03/24 06:55:55;;;;;;;0.20;0.20;;;;;;;16.67;44.47;100314.53;4933086;29;20036;-91
2024/03/24 06:58:21;;;;;;;0.20;0.20;;;;;;;16.53;45.65;100317.41;4933943;29;20032;-90
2024/03/24 07:00:52;;;;;;;0.20;0.20;;;;;;;16.27;47.02;100316.81;4917359;29;20032;-92
2024/03/24 07:03:17;;;;;;;0.13;0.13;;;;;;;16.24;46.78;100315.28;4933322;29;20149;-92
2024/03/24 07:05:43;;;;;;;0.20;0.20;;;;;;;16.12;47.39;100318.81;4933354;29;20099;-90
2024/03/24 07:08:08;;;;;;;0.20;0.20;;;;;;;15.99;47.88;100325.94;4917571;29;20038;-90
2024/03/24 07:10:34;;;;;;;0.20;0.20;;;;;;;15.70;48.86;100307.28;4932930;29;20039;-91
2024/03/24 07:12:59;;;;;;;0.20;0.20;;;;;;;15.43;48.66;100310.13;4933260;29;20032;-91
2024/03/24 07:15:25;;;;;;;0.20;0.20;;;;;;;15.26;49.21;100302.75;4933321;29;20035;-93
2024/03/24 07:17:52;;;;;;;0.20;0.20;;;;;;;15.25;49.94;100311.50;4917626;29;20031;-91
2024/03/24 07:20:18;;;;;;;0.20;0.20;;;;;;;15.05;49.76;100318.16;4917856;29;20192;-92
2024/03/24 07:22:43;;;;;;;0.10;0.10;;;;;;;14.85;50.39;100314.38;4932898;29;20484;-91
2024/03/24 07:25:10;;;;;;;0.10;0.10;;;;;;;14.74;50.94;100316.91;4917080;29;20058;-90
2024/03/24 07:27:35;;;;;;;0.10;0.10;;;;;;;14.71;51.51;100324.94;4917338;29;20390;-90
2024/03/24 07:30:01;;;;;;;0.20;0.20;;;;;;;14.61;51.92;100316.94;4917154;29;20066;-88
2024/03/24 07:32:27;;;;;;;0.20;0.20;;;;;;;14.71;51.93;100317.13;4917150;29;20509;-90
2024/03/24 07:34:52;;;;;;;0.20;0.20;;;;;;;14.78;51.99;100318.38;4933056;29;20087;-90
2024/03/24 07:37:19;;;;;;;0.20;0.20;;;;;;;14.95;51.29;100310.19;4917179;29;20055;-90
2024/03/24 07:39:44;;;;;;;0.20;0.20;;;;;;;14.98;50.90;100301.31;4932752;29;20035;-89
2024/03/24 07:42:10;;;;;;;0.20;0.20;;;;;;;15.08;50.42;100300.53;4932934;29;20035;-90
2024/03/24 07:44:36;;;;;;;0.20;0.20;;;;;;;15.20;49.43;100304.84;4917044;29;20483;-89
2024/03/24 07:47:04;;;;;;;0.10;0.10;;;;;;;15.35;48.93;100302.06;4932903;29;20086;-88
2024/03/24 07:49:32;;;;;;;0.20;0.20;;;;;;;15.31;48.72;100313.66;4932966;29;20486;-90
2024/03/24 07:51:58;;;;;;;0.20;0.20;;;;;;;15.44;48.01;100306.59;4917184;29;20028;-88
2024/03/24 07:54:23;;;;;;;0.20;0.20;;;;;;;15.48;47.67;100300.19;4932468;29;20035;-89
2024/03/24 07:56:49;;;;;;;0.20;0.20;;;;;;;15.69;47.66;100305.63;4916994;29;20118;-90
2024/03/24 07:59:17;;;;;;;0.20;0.20;;;;;;;15.66;47.43;100285.81;4932739;29;20036;-90
2024/03/24 08:01:43;;;;;;;0.17;0.17;;;;;;;15.76;47.42;100281.56;4933702;29;20039;-90
2024/03/24 08:04:09;;;;;;;0.10;0.10;;;;;;;15.96;46.84;100295.72;4936412;29;20495;-89
2024/03/24 08:06:35;;;;;;;0.20;0.20;;;;;;;16.05;46.71;100291.56;4920548;29;20028;-90
2024/03/24 08:09:00;;;;;;;0.20;0.20;;;;;;;16.10;46.48;100285.97;4920884;29;20060;-89
2024/03/24 08:11:26;;;;;;;0.20;0.20;;;;;;;16.15;46.01;100286.47;4920630;29;20035;-89
2024/03/24 08:13:51;;;;;;;0.10;0.10;;;;;;;16.17;46.37;100274.94;4936440;29;20178;-90
2024/03/24 08:16:17;;;;;;;0.20;0.20;;;;;;;16.24;46.20;100265.69;4936481;29;20425;-89
2024/03/24 08:18:42;;;;;;;0.20;0.20;;;;;;;16.43;45.92;100269.47;4936348;29;20019;-88
2024/03/24 08:21:08;;;;;;;0.20;0.20;;;;;;;16.66;46.23;100255.41;4920067;29;20040;-89
2024/03/24 08:23:34;;;;;;;0.10;0.10;;;;;;;16.75;45.52;100228.59;4920221;29;20038;-91
2024/03/24 08:25:59;;;;;;;0.20;0.20;;;;;;;17.16;43.67;100253.13;4935991;29;20027;-89
2024/03/24 08:28:26;;;;;;;0.20;0.20;;;;;;;17.35;43.24;100252.44;4920236;29;20042;-89
2024/03/24 08:30:52;;;;;;;0.20;0.20;;;;;;;17.55;42.09;100248.16;4936120;29;20087;-90
2024/03/24 08:33:18;;;;;;;0.20;0.20;;;;;;;17.73;41.52;100264.97;4919919;29;20055;-88
2024/03/24 08:35:43;;;;;;;0.20;0.20;;;;;;;17.84;41.45;100251.78;4919869;29;20111;-88
2024/03/24 08:38:09;;;;;;;0.20;0.20;;;;;;;18.18;41.55;100251.50;4919952;29;20036;-90
2024/03/24 08:40:34;;;;;;;0.20;0.20;;;;;;;18.46;40.46;100255.16;4935638;29;20024;-88
2024/03/24 08:43:00;;;;;;;0.20;0.20;;;;;;;18.61;40.24;100244.19;4935339;29;20063;-88
2024/03/24 08:45:25;;;;;;;0.10;0.10;;;;;;;18.58;40.09;100244.47;4935688;29;20024;-88
2024/03/24 08:47:51;;;;;;;0.20;0.20;;;;;;;18.50;40.07;100241.69;4919746;29;20035;-89
2024/03/24 08:50:16;;;;;;;0.20;0.20;;;;;;;18.49;40.63;100247.88;4935250;29;20079;-88
2024/03/24 08:52:42;;;;;;;0.20;0.20;;;;;;;18.50;40.14;100217.28;4935558;29;20118;-87
2024/03/24 08:55:08;;;;;;;0.20;0.20;;;;;;;18.74;40.01;100228.22;4936314;29;20043;-90
2024/03/24 08:57:35;;;;;;;0.20;0.20;;;;;;;18.70;39.55;100234.72;4919593;29;20030;-88
2024/03/24 09:00:01;;;;;;;0.20;0.20;;;;;;;18.69;39.59;100229.63;4935446;29;20082;-89
2024/03/24 09:02:26;;;;;;;0.20;0.20;;;;;;;18.79;39.82;100231.28;4935233;29;20506;-88
2024/03/24 09:04:54;;;;;;;0.20;0.20;;;;;;;19.02;38.99;100226.56;4919274;29;20549;-89
2024/03/24 09:07:21;;;;;;;0.20;0.20;;;;;;;18.96;39.17;100227.13;4919627;29;20558;-89
2024/03/24 09:09:47;;;;;;;0.20;0.20;;;;;;;18.93;38.86;100216.91;4935208;29;20055;-88
2024/03/24 09:12:13;;;;;;;0.20;0.20;;;;;;;18.88;39.01;100219.13;4935155;29;20090;-89
2024/03/24 09:14:38;;;;;;;0.20;0.20;;;;;;;19.01;38.55;100208.38;4935236;29;20498;-90
2024/03/24 09:17:04;;;;;;;0.20;0.20;;;;;;;18.88;39.37;100212.09;4919394;29;20039;-90
2024/03/24 09:19:29;;;;;;;0.13;0.13;;;;;;;18.87;39.25;100193.88;4919176;29;20490;-90
2024/03/24 09:21:55;;;;;;;0.10;0.10;;;;;;;18.92;38.99;100199.53;4919103;29;20084;-88
2024/03/24 09:24:20;;;;;;;0.20;0.20;;;;;;;19.03;39.45;100194.16;4934941;29;20514;-88
2024/03/24 09:26:46;;;;;;;0.10;0.10;;;;;;;19.13;40.33;100189.72;4935122;29;20042;-89
2024/03/24 09:29:12;;;;;;;0.20;0.20;;;;;;;18.93;41.54;100174.97;4918842;29;20040;-88
2024/03/24 09:31:37;;;;;;;0.20;0.20;;;;;;;18.77;41.58;100187.81;4934779;29;20028;-88
2024/03/24 09:34:03;;;;;;;0.20;0.20;;;;;;;18.38;42.00;100173.81;4918506;29;20511;-89
2024/03/24 09:36:28;;;;;;;0.20;0.20;;;;;;;18.18;42.72;100172.97;4918993;29;20486;-89
2024/03/24 09:38:54;;;;;;;0.20;0.20;;;;;;;18.00;42.64;100167.56;4934878;29;20458;-89
2024/03/24 09:41:20;;;;;;;0.20;0.20;;;;;;;17.89;42.15;100151.94;4934405;29;20480;-88
2024/03/24 09:43:45;;;;;;;0.20;0.20;;;;;;;17.90;42.74;100170.16;4919006;29;20545;-89
2024/03/24 09:46:11;;;;;;;0.20;0.20;;;;;;;17.88;42.42;100166.81;4934702;29;20084;-90
2024/03/24 09:48:38;;;;;;;0.20;0.20;;;;;;;18.22;41.63;100158.66;4934038;29;20067;-88
2024/03/24 09:51:04;;;;;;;0.20;0.20;;;;;;;18.51;42.41;100174.41;4918584;29;20057;-88
2024/03/24 09:53:30;;;;;;;0.20;0.20;;;;;;;18.62;41.57;100150.69;4918631;29;20032;-91
2024/03/24 09:55:55;;;;;;;0.13;0.13;;;;;;;18.89;41.58;100176.25;4934506;29;20035;-89
2024/03/24 09:58:21;;;;;;;0.20;0.20;;;;;;;18.71;41.04;100165.63;4918817;29;20035;-89
2024/03/24 10:00:46;;;;;;;0.20;0.20;;;;;;;18.24;40.96;100154.94;4918487;29;20083;-89
2024/03/24 10:03:12;;;;;;;0.20;0.20;;;;;;;18.25;41.81;100153.13;4933858;29;20060;-89
2024/03/24 10:05:38;;;;;;;0.20;0.20;;;;;;;18.45;42.14;100154.81;4918391;29;20042;-90
2024/03/24 10:08:04;;;;;;;0.10;0.10;;;;;;;18.46;41.12;100153.84;4934197;29;20076;-89
2024/03/24 10:10:30;;;;;;;0.10;0.10;;;;;;;18.36;40.82;100145.16;4933581;29;20489;-89
2024/03/24 10:12:56;;;;;;;0.20;0.20;;;;;;;18.50;41.39;100149.19;4918165;29;20023;-89
2024/03/24 10:15:26;;;;;;;0.10;0.10;;;;;;;18.51;40.71;100142.97;4918161;29;20660;-90
2024/03/24 10:18:00;;;;;;;0.10;0.10;;;;;;;18.27;40.32;100149.41;4933646;29;20577;-89
2024/03/24 10:20:26;;;;;;;0.20;0.20;;;;;;;18.05;41.86;100132.16;4935075;29;20032;-88
2024/03/24 10:22:55;;;;;;;0.20;0.20;;;;;;;18.15;42.15;100147.06;4917840;29;20384;-89
2024/03/24 10:25:26;;;;;;;0.20;0.20;;;;;;;18.06;41.78;100148.69;4917726;29;20036;-87
2024/03/24 10:27:51;;;;;;;0.17;0.17;;;;;;;17.93;41.89;100143.72;4918011;29;20078;-90
2024/03/24 10:30:18;;;;;;;0.10;0.10;;;;;;;17.86;41.47;100141.75;4933742;29;20115;-88
2024/03/24 10:32:43;;;;;;;0.20;0.20;;;;;;;17.99;41.57;100143.19;4933323;29;20051;-88
2024/03/24 10:35:09;;;;;;;0.20;0.20;;;;;;;18.03;42.00;100134.09;4917479;29;20035;-89
2024/03/24 10:37:35;;;;;;;0.20;0.20;;;;;;;17.95;40.81;100139.16;4917746;29;20040;-88
2024/03/24 10:40:03;;;;;;;0.20;0.20;;;;;;;17.66;41.42;100130.38;4918192;29;20498;-89
2024/03/24 10:42:31;;;;;;;0.20;0.20;;;;;;;17.62;42.00;100144.69;4917818;29;20122;-89
2024/03/24 10:44:58;;;;;;;0.20;0.20;;;;;;;17.54;42.04;100141.91;4933641;29;20051;-89
2024/03/24 10:47:23;;;;;;;0.20;0.20;;;;;;;17.48;41.55;100138.81;4933273;29;20118;-90
2024/03/24 10:49:49;;;;;;;0.20;0.20;;;;;;;17.34;42.42;100138.34;4917677;29;20406;-88
2024/03/24 10:52:14;;;;;;;0.20;0.20;;;;;;;17.25;42.58;100128.69;4933498;29;20035;-89
2024/03/24 10:54:40;;;;;;;0.10;0.10;;;;;;;17.42;42.77;100139.38;4917538;29;20028;-89
2024/03/24 10:57:05;;;;;;;0.20;0.20;;;;;;;17.46;42.04;100134.69;4933184;29;20035;-89
2024/03/24 10:59:32;;;;;;;0.15;0.15;;;;;;;17.39;42.30;100138.78;4917657;29;20036;-90
2024/03/24 11:01:58;;;;;;;0.10;0.10;;;;;;;17.23;41.66;100139.28;4916941;29;20038;-87
2024/03/24 11:04:24;;;;;;;0.20;0.20;;;;;;;17.15;42.30;100141.69;4917087;29;20036;-89
2024/03/24 11:06:50;;;;;;;0.17;0.17;;;;;;;16.92;42.81;100109.66;4917352;29;20482;-90
2024/03/24 11:09:16;;;;;;;0.20;0.20;;;;;;;16.94;42.17;100115.56;4933025;29;20538;-89
2024/03/24 11:11:41;;;;;;;0.20;0.20;;;;;;;16.85;41.78;100118.94;4933085;29;20821;-87
2024/03/24 11:14:07;;;;;;;0.20;0.20;;;;;;;16.80;42.45;100126.31;4917186;29;20055;-88
2024/03/24 11:16:33;;;;;;;0.20;0.20;;;;;;;16.54;41.50;100103.16;4916810;29;20032;-88
2024/03/24 11:19:06;;;;;;;0.20;0.20;;;;;;;16.66;41.48;100135.28;4917521;29;20028;-89